D/T METAR WX W/SPE G/SPE TEMP DEWP FEEL
31/01/23 12:50 EGXE 311250Z AUTO 27022G32KT 9999 NCD 09/00 Q1018 25.3mph 36.8mph 9°C 0°C 6.8°C
31/01/23 06:50 EGXE 310650Z AUTO 26024G34KT 9999 NCD 09/05 Q1014 27.6mph 39.1mph 9°C 5°C 8.3°C
30/01/23 12:50 EGXE 301250Z 29017KT 9999 FEW032 09/02 Q1022 NOSIG RMK BLU BLU 19.6mph 9°C 2°C 7.4°C
30/01/23 11:50 EGXE 301150Z 29016KT 9999 FEW030 09/02 Q1022 NOSIG RMK BLU BLU 18.4mph 9°C 2°C 7.4°C
30/01/23 10:50 EGXE 301050Z 29019KT 9999 FEW030 08/02 Q1021 NOSIG RMK BLU BLU 21.9mph 8°C 2°C 6.4°C
30/01/23 10:20 EGXE 301020Z 30014KT 9999 FEW030 08/02 Q1021 TEMPO 30015G25KT RMK BLU TEMPO BLU 16.1mph 8°C 2°C 6.4°C
30/01/23 09:50 EGXE 300950Z 29016KT 9999 FEW030 08/02 Q1020 NOSIG RMK BLU BLU 18.4mph 8°C 2°C 6.4°C
30/01/23 07:50 EGXE 300750Z 30012KT 9999 FEW030 06/00 Q1019 RMK BLU 13.8mph 6°C 0°C 3.8°C
30/01/23 06:20 EGXE 300620Z AUTO 30013KT 9999 NCD 06/00 Q1017 15.0mph 6°C 0°C 3.8°C
09/01/23 06:20 EGXE 090620Z AUTO 26009KT 9999 // FEW110/// 06/03 Q0988 10.4mph 6°C 3°C 4.7°C
09/01/23 05:50 EGXE 090550Z AUTO 23010KT 9999 // FEW023/// 06/03 Q0988 11.5mph 6°C 3°C 4.7°C
09/01/23 05:20 EGXE 090520Z AUTO 22008KT 9999 -RA SCT023/// BKN039/// 07/03 Q0988 -RA 9.2mph 7°C 3°C 5.7°C
09/01/23 04:50 EGXE 090450Z AUTO 25008KT 9999 SCT044/// 06/04 Q0988 9.2mph 6°C 4°C 5.0°C
09/01/23 04:20 EGXE 090420Z AUTO 25008KT 9999 BKN180/// 06/03 Q0987 9.2mph 6°C 3°C 4.7°C
09/01/23 03:50 EGXE 090350Z AUTO 23009KT 9999 BKN190/// 06/04 Q0987 10.4mph 6°C 4°C 5.0°C
09/01/23 03:20 EGXE 090320Z AUTO 19004KT 9999 FEW023/// SCT042/// 05/03 Q0986 4.6mph 5°C 3°C 3.7°C
09/01/23 02:50 EGXE 090250Z AUTO 18006KT 9999 // SCT024/// SCT200/// 05/04 Q0986 6.9mph 5°C 4°C 4.0°C
09/01/23 02:20 EGXE 090220Z AUTO 14007KT 9999 // BKN027/// SCT044/// 05/04 Q0985 8.1mph 5°C 4°C 4.0°C
09/01/23 01:20 EGXE 090120Z AUTO 17007KT 9999 FEW022/// 06/03 Q0985 8.1mph 6°C 3°C 4.7°C
09/01/23 00:50 EGXE 090050Z AUTO 15009KT 9999 SCT030/// 06/04 Q0985 10.4mph 6°C 4°C 5.0°C
09/01/23 00:20 EGXE 090020Z AUTO 15006KT 9999 BKN027/// BKN039/// 06/04 Q0985 6.9mph 6°C 4°C 5.0°C
08/01/23 23:50 EGXE 082350Z AUTO 16007KT 9999 // OVC027/// 06/04 Q0984 8.1mph 6°C 4°C 5.0°C
08/01/23 23:20 EGXE 082320Z AUTO 21006KT 9999 // FEW027/// 05/03 Q0984 6.9mph 5°C 3°C 3.7°C
08/01/23 22:50 EGXE 082250Z AUTO 20010KT 9999 -DZ OVC019/// 06/03 Q0984 -DZ 11.5mph 6°C 3°C 4.7°C
08/01/23 22:20 EGXE 082220Z AUTO 19010KT 9999 -RA FEW015/// OVC027/// 05/03 Q0983 -RA 11.5mph 5°C 3°C 3.7°C
08/01/23 21:50 EGXE 082150Z AUTO 20011KT 9999 -RA OVC033/// 05/03 Q0983 -RA 12.7mph 5°C 3°C 3.7°C
08/01/23 20:20 EGXE 082020Z AUTO 17011KT 9999 FEW064/// 05/02 Q0983 12.7mph 5°C 2°C 3.4°C
08/01/23 19:20 EGXE 081920Z AUTO 16011KT 9999 BKN160/// 04/02 Q0983 12.7mph 4°C 2°C 2.4°C
08/01/23 18:50 EGXE 081850Z AUTO 17009KT 9999 FEW036/// 04/03 Q0983 10.4mph 4°C 3°C 2.7°C
08/01/23 18:20 EGXE 081820Z AUTO 17005KT 9999 SCT140/// 03/01 Q0983 5.8mph 3°C 1°C 1.1°C
08/01/23 17:50 EGXE 081750Z AUTO 16006KT 9999 OVC140/// 05/03 Q0983 6.9mph 5°C 3°C 3.7°C
08/01/23 17:20 EGXE 081720Z AUTO 18007KT 9999 FEW020/// BKN150/// 05/03 Q0983 8.1mph 5°C 3°C 3.7°C
08/01/23 16:50 EGXE 081650Z AUTO 14007KT 9999 FEW017/// SCT021/// 05/03 Q0983 8.1mph 5°C 3°C 3.7°C
08/01/23 16:20 EGXE 081620Z AUTO 17006KT 9999 FEW019/// BKN130/// 05/03 Q0983 6.9mph 5°C 3°C 3.7°C
08/01/23 15:50 EGXE 081550Z AUTO 22009KT 9999 FEW140/// 05/03 Q0983 10.4mph 5°C 3°C 3.7°C
08/01/23 15:20 EGXE 081520Z AUTO 22007KT 9999 // NCD 05/03 Q0983 8.1mph 5°C 3°C 3.7°C
08/01/23 14:20 EGXE 081420Z AUTO 23008G18KT 9999 RA OVC006/// 06/05 Q0983 RA 9.2mph 20.7mph 6°C 5°C 5.3°C
08/01/23 13:50 EGXE 081350Z AUTO 17008KT 5000 RA OVC008/// 06/05 Q0983 RA 9.2mph 6°C 5°C 5.3°C
08/01/23 13:20 EGXE 081320Z AUTO 16010KT 4000 RA OVC018/// 06/05 Q0983 RA 11.5mph 6°C 5°C 5.3°C
08/01/23 12:50 EGXE 081250Z AUTO 16011KT 9999 -RA FEW018/// SCT026/// BKN039/// 07/04 Q0984 -RA 12.7mph 7°C 4°C 6.0°C
08/01/23 12:20 EGXE 081220Z AUTO 16009KT 9999 FEW016/// SCT100/// 06/04 Q0984 10.4mph 6°C 4°C 5.0°C
08/01/23 11:50 EGXE 081150Z AUTO 15008KT 9999 BKN060/// 06/04 Q0985 9.2mph 6°C 4°C 5.0°C
08/01/23 11:20 EGXE 081120Z AUTO 15007KT 9999 SCT064/// 06/03 Q0986 8.1mph 6°C 3°C 4.7°C
08/01/23 10:50 EGXE 081050Z AUTO 17012KT 9999 FEW060/// 06/03 Q0986 13.8mph 6°C 3°C 4.7°C
08/01/23 10:20 EGXE 081020Z AUTO 18013KT 9999 FEW064/// 07/03 Q0986 15.0mph 7°C 3°C 5.7°C
08/01/23 09:50 EGXE 080950Z AUTO 15009KT 9999 NCD 06/03 Q0986 10.4mph 6°C 3°C 4.7°C
08/01/23 09:20 EGXE 080920Z AUTO 17008KT 9999 NCD 05/03 Q0987 9.2mph 5°C 3°C 3.7°C
08/01/23 08:50 EGXE 080850Z AUTO 16011KT 9999 NCD 05/03 Q0987 12.7mph 5°C 3°C 3.7°C
08/01/23 08:20 EGXE 080820Z AUTO 15011KT 9999 SCT150/// 06/04 Q0987 12.7mph 6°C 4°C 5.0°C
08/01/23 07:50 EGXE 080750Z AUTO 15010KT 9999 FEW027/// SCT120/// 06/04 Q0987 11.5mph 6°C 4°C 5.0°C
08/01/23 07:20 EGXE 080720Z AUTO 16010KT 9999 BKN100/// 06/04 Q0987 11.5mph 6°C 4°C 5.0°C
08/01/23 06:50 EGXE 080650Z AUTO 17011KT 9999 FEW032/// BKN120/// 06/04 Q0987 12.7mph 6°C 4°C 5.0°C
08/01/23 06:20 EGXE 080620Z AUTO 16012KT 9999 FEW020/// 06/04 Q0987 13.8mph 6°C 4°C 5.0°C
08/01/23 05:50 EGXE 080550Z AUTO 15010KT 9999 FEW020/// SCT160/// 06/04 Q0987 11.5mph 6°C 4°C 5.0°C
08/01/23 05:20 EGXE 080520Z AUTO 18010KT 9999 NCD 07/04 Q0987 11.5mph 7°C 4°C 6.0°C
08/01/23 04:50 EGXE 080450Z AUTO 17011KT 9999 FEW061/// 07/04 Q0987 12.7mph 7°C 4°C 6.0°C
08/01/23 04:20 EGXE 080420Z AUTO 18014KT 9999 // FEW026/// 07/04 Q0987 16.1mph 7°C 4°C 6.0°C
08/01/23 03:50 EGXE 080350Z AUTO 19015KT 9999 // SCT023/// 07/04 Q0987 17.3mph 7°C 4°C 6.0°C
08/01/23 03:20 EGXE 080320Z AUTO 20015KT 9999 -RA OVC021/// 07/05 Q0987 -RA 17.3mph 7°C 5°C 6.3°C
08/01/23 02:50 EGXE 080250Z AUTO 21010KT 9999 -RA OVC021/// 07/05 Q0988 -RA 11.5mph 7°C 5°C 6.3°C
08/01/23 02:20 EGXE 080220Z AUTO 20016KT 9999 -RA SCT021/// SCT067/// 08/05 Q0987 -RA 18.4mph 8°C 5°C 7.3°C
08/01/23 01:50 EGXE 080150Z AUTO 19013KT 9999 SCT023/// 08/04 Q0987 15.0mph 8°C 4°C 7.0°C
08/01/23 01:20 EGXE 080120Z AUTO 18015KT 9999 SCT023/// 08/04 Q0987 17.3mph 8°C 4°C 7.0°C
08/01/23 00:20 EGXE 080020Z AUTO 17015KT 9999 // OVC022/// 08/04 Q0987 17.3mph 8°C 4°C 7.0°C
07/01/23 23:50 EGXE 072350Z AUTO 16014KT 9999 // OVC021/// 07/05 Q0987 16.1mph 7°C 5°C 6.3°C
07/01/23 23:20 EGXE 072320Z AUTO 18016KT 9999 // OVC021/// 08/04 Q0987 18.4mph 8°C 4°C 7.0°C
07/01/23 22:50 EGXE 072250Z AUTO 18017KT 9999 // OVC021/// 08/04 Q0987 19.6mph 8°C 4°C 7.0°C
07/01/23 22:20 EGXE 072220Z AUTO 19016KT 9999 -DZ SCT022/// 07/04 Q0987 -DZ 18.4mph 7°C 4°C 6.0°C
07/01/23 21:50 EGXE 072150Z AUTO 17012KT 9999 -RA FEW018/// BKN024/// BKN048/// 07/04 Q0987 -RA 13.8mph 7°C 4°C 6.0°C
07/01/23 21:20 EGXE 072120Z AUTO 18013KT 9999 FEW026/// SCT047/// 07/04 Q0987 15.0mph 7°C 4°C 6.0°C
07/01/23 20:50 EGXE 072050Z AUTO 19012KT 9999 NCD 07/04 Q0987 13.8mph 7°C 4°C 6.0°C
07/01/23 20:20 EGXE 072020Z AUTO 19013KT 9999 FEW110/// 07/04 Q0987 15.0mph 7°C 4°C 6.0°C
07/01/23 19:50 EGXE 071950Z AUTO 19010KT 9999 // BKN030/// BKN081/// 08/05 Q0988 11.5mph 8°C 5°C 7.3°C
07/01/23 19:20 EGXE 071920Z AUTO 19007KT 9999 // FEW031/// BKN072/// BKN086/// 08/05 Q0987 8.1mph 8°C 5°C 7.3°C
07/01/23 18:50 EGXE 071850Z AUTO 19011KT 9999 -DZ FEW017/// 08/06 Q0987 -DZ 12.7mph 8°C 6°C 7.6°C
07/01/23 18:20 EGXE 071820Z AUTO 20007KT 9999 +RA OVC023/// 08/06 Q0987 +RA 8.1mph 8°C 6°C 7.6°C
07/01/23 17:50 EGXE 071750Z AUTO 18009KT 9999 -RA BKN031/// BKN054/// 09/06 Q0987 -RA 10.4mph 9°C 6°C 8.6°C
07/01/23 17:20 EGXE 071720Z AUTO 18014KT 9999 // SCT028/// BKN048/// 10/06 Q0988 16.1mph 10°C 6°C 9.6°C
07/01/23 16:50 EGXE 071650Z AUTO 18010KT 9999 FEW030/// OVC037/// 09/05 Q0988 11.5mph 9°C 5°C 8.3°C
07/01/23 16:20 EGXE 071620Z AUTO 18013KT 9999 FEW032/// BKN044/// 10/05 Q0988 15.0mph 10°C 5°C 9.3°C
07/01/23 15:50 EGXE 071550Z AUTO 18010KT 9999 OVC041/// 09/06 Q0988 11.5mph 9°C 6°C 8.6°C
07/01/23 15:20 EGXE 071520Z AUTO 18011KT 9999 BKN055/// 10/06 Q0988 12.7mph 10°C 6°C 9.6°C
07/01/23 14:50 EGXE 071450Z AUTO 19010KT 9999 FEW084/// 10/06 Q0989 11.5mph 10°C 6°C 9.6°C
07/01/23 14:20 EGXE 071420Z AUTO 20013KT 9999 NCD 10/05 Q0989 15.0mph 10°C 5°C 9.3°C
07/01/23 13:50 EGXE 071350Z AUTO 21013KT 9999 BKN048/// 11/06 Q0989 15.0mph 11°C 6°C 10.6°C
07/01/23 12:50 EGXE 071250Z AUTO 20012KT 9999 // SCT021/// OVC059/// 12/09 Q0989 13.8mph 12°C 9°C 12.8°C
07/01/23 12:20 EGXE 071220Z AUTO 18013KT 9999 // FEW006/// OVC020/// 11/09 Q0989 15.0mph 11°C 9°C 11.8°C
07/01/23 11:50 EGXE 071150Z AUTO 16010KT 9999 -RA FEW008/// BKN020/// BKN040/// 11/10 Q0990 -RA 11.5mph 11°C 10°C 12.3°C
07/01/23 11:20 EGXE 071120Z AUTO 16012KT 9999 RA FEW025/// OVC048/// 10/09 Q0990 RA 13.8mph 10°C 9°C 10.8°C
07/01/23 10:50 EGXE 071050Z AUTO 15011KT 9999 +RA SCT006/// SCT036/// 10/09 Q0990 +RA 12.7mph 10°C 9°C 10.8°C
07/01/23 10:20 EGXE 071020Z AUTO 16009KT 5000 RA FEW010/// OVC040/// 10/09 Q0991 RA 10.4mph 10°C 9°C 10.8°C
07/01/23 09:50 EGXE 070950Z AUTO 18013KT 9999 -RA OVC046/// 10/09 Q0991 -RA 15.0mph 10°C 9°C 10.8°C
07/01/23 09:20 EGXE 070920Z AUTO 17016KT 9999 -RA FEW006/// BKN044/// 10/09 Q0991 -RA 18.4mph 10°C 9°C 10.8°C
07/01/23 08:50 EGXE 070850Z AUTO 17017KT 9000 RA OVC007/// 11/10 Q0991 RA 19.6mph 11°C 10°C 12.3°C
07/01/23 08:20 EGXE 070820Z AUTO 16017KT 6000 -RA OVC009/// 11/09 Q0991 -RA 19.6mph 11°C 9°C 11.8°C
07/01/23 07:50 EGXE 070750Z AUTO 16017KT 6000 -RA OVC010/// 11/09 Q0992 -RA 19.6mph 11°C 9°C 11.8°C